createdAt,value
2023-11-04T00:00:06.219Z,99847.06
2023-11-04T00:05:03.298Z,99791.03
2023-11-04T00:10:01.094Z,99834.81
2023-11-04T00:14:57.975Z,99867.72
2023-11-04T00:19:54.907Z,99846.47
2023-11-04T00:24:53.837Z,99866.34
2023-11-04T00:29:51.547Z,99851.19
2023-11-04T00:34:48.978Z,99816.53
2023-11-04T00:39:46.265Z,99731.25
2023-11-04T00:44:43.150Z,99712.56
2023-11-04T00:49:40.892Z,99786.97
2023-11-04T00:54:37.848Z,99769.94
2023-11-04T00:59:34.726Z,99782.47
2023-11-04T01:04:31.651Z,99777.44
2023-11-04T01:09:34.920Z,99762.25
2023-11-04T01:14:40.226Z,99762.50
2023-11-04T01:19:37.173Z,99735.81
2023-11-04T01:24:35.133Z,99749.00
2023-11-04T01:29:32.256Z,99721.78
2023-11-04T01:34:29.230Z,99726.47
2023-11-04T01:39:26.593Z,99725.09
2023-11-04T01:44:24.641Z,99726.63
2023-11-04T01:49:21.746Z,99700.94
2023-11-04T01:54:19.062Z,99684.94
2023-11-04T01:59:16.955Z,99657.13
2023-11-04T02:04:14.646Z,99622.78
2023-11-04T02:09:12.216Z,99645.97
2023-11-04T02:14:10.453Z,99638.63
2023-11-04T02:19:07.483Z,99646.34
2023-11-04T02:24:05.828Z,99627.06
2023-11-04T02:29:04.212Z,99631.69
2023-11-04T02:34:01.323Z,99612.84
2023-11-04T02:38:58.899Z,99631.34
2023-11-04T02:43:56.429Z,99649.63
2023-11-04T02:48:53.532Z,99660.78
2023-11-04T02:53:50.387Z,99628.66
2023-11-04T02:58:47.281Z,99617.78
2023-11-04T03:03:45.211Z,99629.75
2023-11-04T03:08:42.205Z,99623.00
2023-11-04T03:13:39.234Z,99590.97
2023-11-04T03:18:39.089Z,99606.88
2023-11-04T03:23:36.716Z,99617.72
2023-11-04T03:28:33.875Z,99587.81
2023-11-04T03:33:31.293Z,99608.09
2023-11-04T03:38:28.177Z,99593.44
2023-11-04T03:43:26.120Z,99612.28
2023-11-04T03:48:24.646Z,99602.59
2023-11-04T03:53:21.589Z,99598.38
2023-11-04T03:58:18.848Z,99566.28
2023-11-04T04:03:16.494Z,99600.47
2023-11-04T04:08:13.485Z,99606.19
2023-11-04T04:13:10.425Z,99601.66
2023-11-04T04:18:07.327Z,99605.03
2023-11-04T04:23:05.111Z,99611.91
2023-11-04T04:28:02.025Z,99604.06
2023-11-04T04:32:58.997Z,99622.25
2023-11-04T04:37:56.026Z,99619.69
2023-11-04T04:42:53.697Z,99608.88
2023-11-04T04:47:50.576Z,99623.63
2023-11-04T04:52:47.865Z,99602.13
2023-11-04T04:57:44.750Z,99610.97
2023-11-04T05:02:43.101Z,99633.13
2023-11-04T05:07:40.760Z,99635.41
2023-11-04T05:12:38.716Z,99649.28
2023-11-04T05:17:36.167Z,99610.56
2023-11-04T05:22:33.747Z,99653.78
2023-11-04T05:27:31.831Z,99635.06
2023-11-04T05:32:31.074Z,99666.09
2023-11-04T05:37:29.772Z,99573.81
2023-11-04T05:42:28.343Z,99668.41
2023-11-04T05:47:25.716Z,99660.34
2023-11-04T05:52:22.738Z,99616.16
2023-11-04T05:57:22.490Z,99587.81
2023-11-04T06:02:23.230Z,99560.50
2023-11-04T06:07:20.638Z,99525.97
2023-11-04T06:12:17.685Z,99589.94
2023-11-04T06:17:14.877Z,99599.13
2023-11-04T06:22:14.506Z,99604.06
2023-11-04T06:27:12.774Z,99576.84
2023-11-04T06:32:11.174Z,99560.38
2023-11-04T06:37:08.345Z,99590.06
2023-11-04T06:42:10.763Z,99527.50
2023-11-04T06:47:07.634Z,99501.72
2023-11-04T06:52:05.142Z,99567.53
2023-11-04T06:57:08.148Z,99494.31
2023-11-04T07:02:10.464Z,99529.66
2023-11-04T07:07:10.138Z,99530.09
2023-11-04T07:12:15.348Z,99535.78
2023-11-04T07:17:14.335Z,99547.94
2023-11-04T07:22:14.428Z,99519.66
2023-11-04T07:27:15.581Z,99551.16
2023-11-04T07:32:26.167Z,99492.06
2023-11-04T07:37:25.378Z,99524.94
2023-11-04T07:42:27.953Z,99546.69
2023-11-04T07:47:26.008Z,99520.78
2023-11-04T07:52:23.783Z,99539.59
2023-11-04T07:57:20.825Z,99528.00
2023-11-04T08:02:18.668Z,99525.97
2023-11-04T08:07:15.952Z,99550.53
2023-11-04T08:12:13.045Z,99547.19
2023-11-04T08:17:10.409Z,99584.53
2023-11-04T08:22:08.331Z,99577.38
2023-11-04T08:27:05.594Z,99539.63
2023-11-04T08:32:02.645Z,99559.66
2023-11-04T08:36:59.732Z,99639.66
2023-11-04T08:41:57.540Z,99584.50
2023-11-04T08:46:54.520Z,99565.28
2023-11-04T08:51:52.219Z,99569.31
2023-11-04T08:56:49.380Z,99491.31
2023-11-04T09:01:48.171Z,99528.31
2023-11-04T09:06:46.297Z,99534.84
2023-11-04T09:11:43.232Z,99465.69
2023-11-04T09:16:45.247Z,99475.22
2023-11-04T09:21:42.945Z,99413.59
2023-11-04T09:26:39.856Z,99333.72
2023-11-04T09:31:37.797Z,99333.28
2023-11-04T09:36:35.221Z,99395.13
2023-11-04T09:41:35.598Z,99395.47
2023-11-04T09:46:37.764Z,99346.22
2023-11-04T09:51:35.102Z,99373.13
2023-11-04T09:56:33.019Z,99369.47
2023-11-04T10:01:35.620Z,99365.75
2023-11-04T10:06:33.516Z,99362.78
2023-11-04T10:11:30.459Z,99382.78
2023-11-04T10:16:29.725Z,99375.44
2023-11-04T10:21:26.993Z,99402.44
2023-11-04T10:26:28.156Z,99440.59
2023-11-04T10:31:26.797Z,99414.31
2023-11-04T10:36:25.093Z,99277.66
2023-11-04T10:41:28.566Z,99412.81
2023-11-04T10:46:37.846Z,99329.84
2023-11-04T10:51:43.577Z,99347.03
2023-11-04T10:56:44.794Z,99368.31
2023-11-04T11:01:42.604Z,99286.28
2023-11-04T11:06:40.924Z,99346.13
2023-11-04T11:11:44.845Z,99368.59
2023-11-04T11:16:41.755Z,99348.91
2023-11-04T11:21:49.944Z,99339.59
2023-11-04T11:26:48.133Z,99273.56
2023-11-04T11:31:45.120Z,99275.59
2023-11-04T11:36:44.372Z,99257.91
2023-11-04T11:41:44.051Z,99283.72
2023-11-04T11:46:42.927Z,99238.00
2023-11-04T11:51:40.986Z,99159.84
2023-11-04T11:56:40.683Z,99097.69
2023-11-04T12:01:38.985Z,99088.94
2023-11-04T12:06:37.285Z,99099.06
2023-11-04T12:11:35.192Z,99107.16
2023-11-04T12:16:32.365Z,99125.44
2023-11-04T12:21:29.995Z,99138.25
2023-11-04T12:26:31.213Z,99215.13
2023-11-04T12:31:28.612Z,99236.63
2023-11-04T12:36:26.017Z,99233.53
2023-11-04T12:41:24.790Z,99234.34
2023-11-04T12:46:22.323Z,99260.50
2023-11-04T12:51:19.839Z,99278.28
2023-11-04T12:56:18.943Z,99232.88
2023-11-04T13:01:17.018Z,99203.59
2023-11-04T13:06:14.229Z,99213.09
2023-11-04T13:11:11.440Z,99209.25
2023-11-04T13:16:11.433Z,99298.13
2023-11-04T13:21:10.125Z,99234.34
2023-11-04T13:26:07.133Z,99183.13
2023-11-04T13:31:04.351Z,99263.81
2023-11-04T13:36:01.326Z,99269.47
2023-11-04T13:40:58.991Z,99269.31
2023-11-04T13:45:55.891Z,99238.88
2023-11-04T13:50:52.757Z,99255.34
2023-11-04T13:55:49.554Z,99272.31
2023-11-04T14:00:48.743Z,99275.31
2023-11-04T14:05:47.032Z,99258.31
2023-11-04T14:10:45.378Z,99242.56
2023-11-04T14:15:42.352Z,99216.06
2023-11-04T14:20:39.993Z,99212.91
2023-11-04T14:25:36.857Z,99229.22
2023-11-04T14:30:33.652Z,99247.16
2023-11-04T14:35:30.585Z,99277.75
2023-11-04T14:40:28.382Z,99255.47
2023-11-04T14:45:27.664Z,99245.66
2023-11-04T14:50:28.461Z,99231.69
2023-11-04T14:55:27.910Z,99259.25
2023-11-04T15:00:24.812Z,99348.75
2023-11-04T15:05:22.649Z,99338.94
2023-11-04T15:10:20.154Z,99327.44
2023-11-04T15:15:17.919Z,99363.03
2023-11-04T15:20:15.596Z,99337.69
2023-11-04T15:25:12.772Z,99293.03
2023-11-04T15:30:10.713Z,99332.00
2023-11-04T15:35:09.236Z,99360.78
2023-11-04T15:40:08.302Z,99337.94
2023-11-04T15:45:07.109Z,99324.59
2023-11-04T15:50:04.343Z,99354.75
2023-11-04T15:55:02.129Z,99353.56
2023-11-04T15:59:59.218Z,99365.34
2023-11-04T16:04:56.018Z,99395.97
2023-11-04T16:09:56.125Z,99399.84
2023-11-04T16:14:56.917Z,99337.59
2023-11-04T16:19:59.036Z,99425.72
2023-11-04T16:24:56.704Z,99418.28
2023-11-04T16:29:54.398Z,99414.50
2023-11-04T16:34:57.615Z,99412.31
2023-11-04T16:39:54.556Z,99461.63
2023-11-04T16:44:51.443Z,99484.03
2023-11-04T16:49:52.159Z,99468.22
2023-11-04T16:54:51.031Z,99463.91
2023-11-04T16:59:50.299Z,99450.41
2023-11-04T17:04:47.357Z,99453.44
2023-11-04T17:09:46.773Z,99352.41
2023-11-04T17:14:43.819Z,99471.66
2023-11-04T17:19:40.785Z,99491.06
2023-11-04T17:24:38.081Z,99485.09
2023-11-04T17:29:36.489Z,99506.72
2023-11-04T17:34:35.859Z,99462.19
2023-11-04T17:39:32.997Z,99465.22
2023-11-04T17:44:30.092Z,99472.13
2023-11-04T17:49:29.128Z,99440.41
2023-11-04T17:54:25.991Z,99518.72
2023-11-04T17:59:22.808Z,99496.94
2023-11-04T18:04:21.232Z,99462.84
2023-11-04T18:09:23.829Z,99508.69
2023-11-04T18:14:20.995Z,99511.22
2023-11-04T18:19:19.671Z,99497.41
2023-11-04T18:24:18.304Z,99555.16
2023-11-04T18:29:15.962Z,99468.38
2023-11-04T18:34:13.220Z,99546.56
2023-11-04T18:39:14.553Z,99494.25
2023-11-04T18:44:12.438Z,99513.78
2023-11-04T18:49:11.050Z,99570.75
2023-11-04T18:54:10.795Z,99620.66
2023-11-04T18:59:07.645Z,99591.31
2023-11-04T19:04:07.254Z,99617.56
2023-11-04T19:09:05.540Z,99636.66
2023-11-04T19:14:02.628Z,99640.91
2023-11-04T19:18:59.631Z,99577.88
2023-11-04T19:23:56.540Z,99659.47
2023-11-04T19:28:57.067Z,99627.25
2023-11-04T19:33:58.373Z,99664.25
2023-11-04T19:38:55.161Z,99664.69
2023-11-04T19:43:52.004Z,99671.25
2023-11-04T19:48:50.755Z,99580.88
2023-11-04T19:53:51.249Z,99687.88
2023-11-04T19:58:48.104Z,99697.38
2023-11-04T20:03:45.562Z,99713.97
2023-11-04T20:08:49.059Z,99714.25
2023-11-04T20:13:45.820Z,99723.31
2023-11-04T20:18:42.664Z,99712.44
2023-11-04T20:23:39.488Z,99737.84
2023-11-04T20:28:38.942Z,99753.03
2023-11-04T20:33:35.956Z,99757.78
2023-11-04T20:38:32.839Z,99731.09
2023-11-04T20:43:29.710Z,99772.59
2023-11-04T20:48:27.185Z,99786.22
2023-11-04T20:53:25.158Z,99764.28
2023-11-04T20:58:22.078Z,99744.19
2023-11-04T21:03:19.110Z,99807.13
2023-11-04T21:08:16.766Z,99806.38
2023-11-04T21:13:13.872Z,99815.63
2023-11-04T21:18:10.662Z,99809.03
2023-11-04T21:23:08.704Z,99807.72
2023-11-04T21:28:06.362Z,99848.38
2023-11-04T21:33:04.940Z,99861.88
2023-11-04T21:38:01.809Z,99830.22
2023-11-04T21:42:58.659Z,99862.13
2023-11-04T21:47:56.784Z,99831.19
2023-11-04T21:52:54.885Z,99862.53
2023-11-04T21:57:51.908Z,99869.66
2023-11-04T22:02:48.798Z,99887.22
2023-11-04T22:07:46.259Z,99908.41
2023-11-04T22:12:43.106Z,99895.94
2023-11-04T22:17:40.012Z,99908.91
2023-11-04T22:22:38.287Z,99896.19
2023-11-04T22:27:35.757Z,99906.00
2023-11-04T22:32:33.023Z,99900.25
2023-11-04T22:37:29.897Z,99897.59
2023-11-04T22:42:27.121Z,99868.34
2023-11-04T22:47:24.659Z,99894.47
2023-11-04T22:52:22.131Z,99919.31
2023-11-04T22:57:18.948Z,99887.22
2023-11-04T23:02:15.791Z,99926.09
2023-11-04T23:07:13.280Z,99931.31
2023-11-04T23:12:13.962Z,99928.22
2023-11-04T23:17:10.853Z,99928.75
2023-11-04T23:22:07.636Z,99950.72
2023-11-04T23:27:06.547Z,99953.81
2023-11-04T23:32:03.847Z,99962.72
2023-11-04T23:37:00.735Z,99950.00
2023-11-04T23:41:57.505Z,99963.97
2023-11-04T23:46:56.520Z,99977.91
2023-11-04T23:51:53.287Z,99982.22
2023-11-04T23:56:50.330Z,99996.44
